createdAt,value
2019-06-15T00:00:04.962Z,0.00
2019-06-15T00:01:05.009Z,0.00
2019-06-15T00:02:05.054Z,0.00
2019-06-15T00:03:05.095Z,0.00
2019-06-15T00:04:05.147Z,0.00
2019-06-15T00:05:05.191Z,0.00
2019-06-15T00:06:05.228Z,0.00
2019-06-15T00:07:05.273Z,0.00
2019-06-15T00:08:05.365Z,0.00
2019-06-15T00:09:05.363Z,0.00
2019-06-15T00:10:05.410Z,0.00
2019-06-15T00:11:05.451Z,0.00
2019-06-15T00:12:05.498Z,0.00
2019-06-15T00:13:05.542Z,0.00
2019-06-15T00:14:05.584Z,0.00
2019-06-15T00:15:05.633Z,0.00
2019-06-15T00:16:05.676Z,0.00
2019-06-15T00:17:05.727Z,0.00
2019-06-15T00:18:05.762Z,0.00
2019-06-15T00:19:05.805Z,0.00
2019-06-15T00:20:05.860Z,0.00
2019-06-15T00:21:05.891Z,0.00
2019-06-15T00:22:05.944Z,0.00
2019-06-15T00:23:05.980Z,0.00
2019-06-15T00:24:06.026Z,0.00
2019-06-15T00:25:06.073Z,0.00
2019-06-15T00:26:06.115Z,0.00
2019-06-15T00:27:06.157Z,0.00
2019-06-15T00:28:06.201Z,0.00
2019-06-15T00:29:06.245Z,0.00
2019-06-15T00:30:06.294Z,0.00
2019-06-15T00:31:06.334Z,0.00
2019-06-15T00:32:06.378Z,0.00
2019-06-15T00:33:06.421Z,0.00
2019-06-15T00:34:06.465Z,0.00
2019-06-15T00:35:06.511Z,0.00
2019-06-15T00:36:06.555Z,0.00
2019-06-15T00:37:06.641Z,0.00
2019-06-15T00:38:06.642Z,0.00
2019-06-15T00:39:06.687Z,0.00
2019-06-15T00:40:06.731Z,0.00
2019-06-15T00:41:06.778Z,0.00
2019-06-15T00:42:06.820Z,0.00
2019-06-15T00:43:06.867Z,0.00
2019-06-15T00:44:06.909Z,0.00
2019-06-15T00:45:06.951Z,0.00
2019-06-15T00:46:06.996Z,0.00
2019-06-15T00:47:07.049Z,0.00
2019-06-15T00:48:07.087Z,0.00
2019-06-15T00:49:07.131Z,0.00
2019-06-15T00:50:07.170Z,0.00
2019-06-15T00:51:07.215Z,0.00
2019-06-15T00:52:07.268Z,0.00
2019-06-15T00:53:07.403Z,0.00
2019-06-15T00:54:07.348Z,0.00
2019-06-15T00:55:07.393Z,0.00
2019-06-15T00:56:07.437Z,0.00
2019-06-15T00:57:07.480Z,0.00
2019-06-15T00:58:07.525Z,0.00
2019-06-15T00:59:07.569Z,0.00
2019-06-15T01:00:07.615Z,0.00
2019-06-15T01:01:07.657Z,0.00
2019-06-15T01:02:07.700Z,0.00
2019-06-15T01:03:07.747Z,0.00
2019-06-15T01:04:07.790Z,0.00
2019-06-15T01:05:07.838Z,0.00
2019-06-15T01:06:07.882Z,0.00
2019-06-15T01:07:07.925Z,0.00
2019-06-15T01:08:07.969Z,0.00
2019-06-15T01:09:08.012Z,0.00
2019-06-15T01:10:08.054Z,0.00
2019-06-15T01:11:08.098Z,0.00
2019-06-15T01:12:08.145Z,0.00
2019-06-15T01:13:08.187Z,0.00
2019-06-15T01:14:08.237Z,0.00
2019-06-15T01:15:08.273Z,0.00
2019-06-15T01:16:08.318Z,0.00
2019-06-15T01:17:08.363Z,0.00
2019-06-15T01:18:08.407Z,0.00
2019-06-15T01:19:08.452Z,0.00
2019-06-15T01:20:08.498Z,0.00
2019-06-15T01:21:08.544Z,0.00
2019-06-15T01:22:08.583Z,0.00
2019-06-15T01:23:08.628Z,0.00
2019-06-15T01:24:08.672Z,0.00
2019-06-15T01:25:08.715Z,0.00
2019-06-15T01:26:08.769Z,0.00
2019-06-15T01:27:08.803Z,0.00
2019-06-15T01:28:08.849Z,0.00
2019-06-15T01:29:08.890Z,0.00
2019-06-15T01:30:08.935Z,0.00
2019-06-15T01:31:08.979Z,0.00
2019-06-15T01:32:09.023Z,0.00
2019-06-15T01:33:09.066Z,0.00
2019-06-15T01:34:09.112Z,0.00
2019-06-15T01:35:09.155Z,0.00
2019-06-15T01:36:09.212Z,0.00
2019-06-15T01:37:09.243Z,0.00
2019-06-15T01:38:09.324Z,0.00
2019-06-15T01:39:09.332Z,0.00
2019-06-15T01:40:09.383Z,0.00
2019-06-15T01:41:09.421Z,0.00
2019-06-15T01:42:09.505Z,0.00
2019-06-15T01:43:09.510Z,0.00
2019-06-15T01:44:09.550Z,0.00
2019-06-15T01:45:09.600Z,0.00
2019-06-15T01:46:09.639Z,0.00
2019-06-15T01:47:09.737Z,0.00
2019-06-15T01:48:09.726Z,0.00
2019-06-15T01:49:09.769Z,0.00
2019-06-15T01:50:09.815Z,0.00
2019-06-15T01:51:09.857Z,0.00
2019-06-15T01:52:09.902Z,0.00
2019-06-15T01:53:09.946Z,0.00
2019-06-15T01:54:09.989Z,0.00
2019-06-15T01:55:20.499Z,0.00
2019-06-15T01:56:10.082Z,0.00
2019-06-15T01:57:10.129Z,0.00
2019-06-15T01:58:10.170Z,0.00
2019-06-15T01:59:10.217Z,0.00
2019-06-15T02:00:10.259Z,0.00
2019-06-15T02:01:10.297Z,0.00
2019-06-15T02:02:10.349Z,0.00
2019-06-15T02:03:10.390Z,0.00
2019-06-15T02:04:10.433Z,0.00
2019-06-15T02:05:10.473Z,0.00
2019-06-15T02:06:10.520Z,0.00
2019-06-15T02:07:10.564Z,0.00
2019-06-15T02:08:10.661Z,0.00
2019-06-15T02:09:10.668Z,0.00
2019-06-15T02:10:10.694Z,0.00
2019-06-15T02:11:10.760Z,0.00
2019-06-15T02:12:10.808Z,0.00
2019-06-15T02:13:10.825Z,0.00
2019-06-15T02:14:10.871Z,0.00
2019-06-15T02:15:10.917Z,0.00
2019-06-15T02:16:10.960Z,0.00
2019-06-15T02:17:11.002Z,0.00
2019-06-15T02:18:11.050Z,0.00
2019-06-15T02:19:11.093Z,0.00
2019-06-15T02:20:11.136Z,0.00
2019-06-15T02:21:11.180Z,0.00
2019-06-15T02:22:11.223Z,0.00
2019-06-15T02:23:11.268Z,0.00
2019-06-15T02:24:11.313Z,0.00
2019-06-15T02:25:11.362Z,0.00
2019-06-15T02:26:11.402Z,0.00
2019-06-15T02:27:11.443Z,0.00
2019-06-15T02:28:11.499Z,4.00
2019-06-15T02:29:11.533Z,4.00
2019-06-15T02:30:11.578Z,4.00
2019-06-15T02:31:11.621Z,0.00
2019-06-15T02:32:11.684Z,4.00
2019-06-15T02:33:11.711Z,4.00
2019-06-15T02:34:11.789Z,4.00
2019-06-15T02:35:11.868Z,4.00
2019-06-15T02:36:11.841Z,4.00
2019-06-15T02:37:11.896Z,8.00
2019-06-15T02:38:11.942Z,8.00
2019-06-15T02:39:11.974Z,8.00
2019-06-15T02:40:12.020Z,8.00
2019-06-15T02:41:12.080Z,8.00
2019-06-15T02:42:12.120Z,8.00
2019-06-15T02:43:12.153Z,12.00
2019-06-15T02:44:12.198Z,12.00
2019-06-15T02:45:12.242Z,12.00
2019-06-15T02:46:12.285Z,16.00
2019-06-15T02:47:12.357Z,12.00
2019-06-15T02:48:12.374Z,16.00
2019-06-15T02:49:12.429Z,16.00
2019-06-15T02:50:12.465Z,20.00
2019-06-15T02:51:12.507Z,24.00
2019-06-15T02:52:12.550Z,28.00
2019-06-15T02:53:12.602Z,32.00
2019-06-15T02:54:12.637Z,32.00
2019-06-15T02:55:12.683Z,32.00
2019-06-15T02:56:12.728Z,36.00
2019-06-15T02:57:12.774Z,40.00
2019-06-15T02:58:12.819Z,44.00
2019-06-15T02:59:12.860Z,48.00
2019-06-15T03:00:12.908Z,52.00
2019-06-15T03:01:12.952Z,56.00
2019-06-15T03:02:12.993Z,60.00
2019-06-15T03:03:13.040Z,64.00
2019-06-15T03:04:13.085Z,72.00
2019-06-15T03:05:13.126Z,80.00
2019-06-15T03:06:13.172Z,88.00
2019-06-15T03:07:13.279Z,100.00
2019-06-15T03:08:13.260Z,112.00
2019-06-15T03:09:13.313Z,120.00
2019-06-15T03:10:13.347Z,136.00
2019-06-15T03:11:13.392Z,148.00
2019-06-15T03:12:13.437Z,164.00
2019-06-15T03:13:13.484Z,180.00
2019-06-15T03:14:13.525Z,200.00
2019-06-15T03:15:13.567Z,220.00
2019-06-15T03:16:13.613Z,240.00
2019-06-15T03:17:13.655Z,260.00
2019-06-15T03:18:13.712Z,280.00
2019-06-15T03:19:13.749Z,296.00
2019-06-15T03:20:13.791Z,312.00
2019-06-15T03:21:13.835Z,332.00
2019-06-15T03:22:13.879Z,352.00
2019-06-15T03:23:13.930Z,368.00
2019-06-15T03:24:13.970Z,388.00
2019-06-15T03:25:14.011Z,412.00
2019-06-15T03:26:14.066Z,436.00
2019-06-15T03:27:14.129Z,472.00
2019-06-15T03:28:14.147Z,524.00
2019-06-15T03:29:14.193Z,588.00
2019-06-15T03:30:14.234Z,656.00
2019-06-15T03:31:14.279Z,724.00
2019-06-15T03:32:14.326Z,788.00
2019-06-15T03:33:14.377Z,848.00
2019-06-15T03:34:14.414Z,896.00
2019-06-15T03:35:14.456Z,944.00
2019-06-15T03:36:14.500Z,984.00
2019-06-15T03:37:14.549Z,1008.00
2019-06-15T03:38:14.597Z,1020.00
2019-06-15T03:39:14.645Z,1028.00
2019-06-15T03:40:14.677Z,1036.00
2019-06-15T03:41:14.734Z,1044.00
2019-06-15T03:42:14.767Z,1056.00
2019-06-15T03:43:14.812Z,1064.00
2019-06-15T03:44:14.855Z,1088.00
2019-06-15T03:45:14.902Z,1104.00
2019-06-15T03:46:14.945Z,1112.00
2019-06-15T03:47:14.989Z,1112.00
2019-06-15T03:48:15.035Z,1104.00
2019-06-15T03:49:15.085Z,1104.00
2019-06-15T03:50:15.122Z,1108.00
2019-06-15T03:51:15.167Z,1116.00
2019-06-15T03:52:15.218Z,1104.00
2019-06-15T03:53:15.256Z,1080.00
2019-06-15T03:54:15.314Z,1060.00
2019-06-15T03:55:15.358Z,1060.00
2019-06-15T03:56:21.438Z,1088.00
2019-06-15T03:57:15.433Z,1132.00
2019-06-15T03:58:15.478Z,1188.00
2019-06-15T03:59:15.526Z,1252.00
2019-06-15T04:00:15.569Z,1328.00
2019-06-15T04:01:15.611Z,1416.00
2019-06-15T04:02:15.656Z,1504.00
2019-06-15T04:03:15.704Z,1580.00
2019-06-15T04:04:15.744Z,1648.00
2019-06-15T04:05:15.789Z,1704.00
2019-06-15T04:06:15.833Z,1764.00
2019-06-15T04:07:15.881Z,1812.00
2019-06-15T04:08:15.925Z,1864.00
2019-06-15T04:09:15.968Z,1920.00
2019-06-15T04:10:16.012Z,1988.00
2019-06-15T04:11:16.057Z,2076.00
2019-06-15T04:12:16.102Z,2188.00
2019-06-15T04:13:16.144Z,2300.00
2019-06-15T04:14:16.191Z,2404.00
2019-06-15T04:15:16.238Z,2496.00
2019-06-15T04:16:16.279Z,2584.00
2019-06-15T04:17:16.325Z,2656.00
2019-06-15T04:18:16.381Z,2720.00
2019-06-15T04:19:16.419Z,2784.00
2019-06-15T04:20:16.459Z,2864.00
2019-06-15T04:21:16.520Z,2980.00
2019-06-15T04:22:16.547Z,3112.00
2019-06-15T04:23:16.602Z,3228.00
2019-06-15T04:24:16.637Z,3332.00
2019-06-15T04:25:16.689Z,3468.00
2019-06-15T04:26:16.725Z,3548.00
2019-06-15T04:27:16.777Z,3524.00
2019-06-15T04:28:16.824Z,3452.00
2019-06-15T04:29:16.867Z,3404.00
2019-06-15T04:30:16.905Z,3396.00
2019-06-15T04:31:16.954Z,3384.00
2019-06-15T04:32:17.001Z,3368.00
2019-06-15T04:33:17.069Z,3328.00
2019-06-15T04:34:17.138Z,3276.00
2019-06-15T04:35:17.131Z,3316.00
2019-06-15T04:36:17.196Z,3520.00
2019-06-15T04:37:17.217Z,3916.00
2019-06-15T04:38:17.261Z,4328.00
2019-06-15T04:39:17.307Z,4720.00
2019-06-15T04:40:17.352Z,5164.00
2019-06-15T04:41:17.403Z,5512.00
2019-06-15T04:42:17.440Z,5612.00
2019-06-15T04:43:17.484Z,5628.00
2019-06-15T04:44:17.530Z,5672.00
2019-06-15T04:45:17.572Z,5784.00
2019-06-15T04:46:17.620Z,5864.00
2019-06-15T04:47:17.695Z,5872.00
2019-06-15T04:48:17.710Z,5816.00
2019-06-15T04:49:17.752Z,5712.00
2019-06-15T04:50:17.796Z,5596.00
2019-06-15T04:51:17.841Z,5500.00
2019-06-15T04:52:17.888Z,5412.00
2019-06-15T04:53:17.932Z,5476.00
2019-06-15T04:54:17.978Z,5812.00
2019-06-15T04:55:18.024Z,6180.00
2019-06-15T04:56:18.064Z,6348.00
2019-06-15T04:57:18.109Z,6292.00
2019-06-15T04:58:18.154Z,6212.00
2019-06-15T04:59:18.201Z,6232.00
2019-06-15T05:00:18.251Z,6360.00
2019-06-15T05:01:18.288Z,6488.00
2019-06-15T05:02:18.337Z,6520.00
2019-06-15T05:03:18.380Z,6500.00
2019-06-15T05:04:18.423Z,6628.00
2019-06-15T05:05:18.474Z,7020.00
2019-06-15T05:06:18.513Z,7744.00
2019-06-15T05:07:18.559Z,8780.00
2019-06-15T05:08:18.619Z,10312.00
2019-06-15T05:09:18.658Z,11480.00
2019-06-15T05:10:18.696Z,12204.00
2019-06-15T05:11:18.754Z,12380.00
2019-06-15T05:12:18.791Z,12708.00
2019-06-15T05:13:18.831Z,12288.00
2019-06-15T05:14:18.876Z,13368.00
2019-06-15T05:15:18.966Z,17600.00
2019-06-15T05:16:18.967Z,14660.00
2019-06-15T05:17:19.012Z,13712.00
2019-06-15T05:18:19.058Z,12568.00
2019-06-15T05:19:19.100Z,11936.00
2019-06-15T05:20:19.149Z,11936.00
2019-06-15T05:21:19.192Z,11640.00
2019-06-15T05:22:19.266Z,11464.00
2019-06-15T05:23:19.285Z,11248.00
2019-06-15T05:24:19.329Z,11148.00
2019-06-15T05:25:19.374Z,10804.00
2019-06-15T05:26:19.423Z,10664.00
2019-06-15T05:27:19.465Z,10492.00
2019-06-15T05:28:19.520Z,10616.00
2019-06-15T05:29:19.562Z,10640.00
2019-06-15T05:30:19.608Z,10696.00
2019-06-15T05:31:19.657Z,10664.00
2019-06-15T05:32:19.695Z,10548.00
2019-06-15T05:33:19.749Z,10404.00
2019-06-15T05:34:19.798Z,10352.00
2019-06-15T05:35:19.834Z,10320.00
2019-06-15T05:36:19.881Z,10340.00
2019-06-15T05:37:19.931Z,10380.00
2019-06-15T05:38:19.970Z,10420.00
2019-06-15T05:39:20.117Z,10472.00
2019-06-15T05:40:20.066Z,10516.00
2019-06-15T05:41:20.117Z,10564.00
2019-06-15T05:42:20.158Z,10580.00
2019-06-15T05:43:20.222Z,10516.00
2019-06-15T05:44:20.254Z,10444.00
2019-06-15T05:45:20.292Z,10400.00
2019-06-15T05:46:20.340Z,10380.00
2019-06-15T05:47:20.391Z,10364.00
2019-06-15T05:48:20.447Z,10352.00
2019-06-15T05:49:20.474Z,10344.00
2019-06-15T05:50:20.521Z,10332.00
2019-06-15T05:51:20.571Z,10300.00
2019-06-15T05:52:20.615Z,10276.00
2019-06-15T05:53:20.659Z,10268.00
2019-06-15T05:54:20.708Z,10276.00
2019-06-15T05:55:20.761Z,10284.00
2019-06-15T05:56:20.802Z,10284.00
2019-06-15T05:57:21.991Z,10264.00
2019-06-15T05:58:20.890Z,10232.00
2019-06-15T05:59:20.938Z,10224.00
2019-06-15T06:00:20.983Z,10220.00
2019-06-15T06:01:21.029Z,10212.00
2019-06-15T06:02:24.650Z,10068.00
2019-06-15T06:03:21.122Z,10356.00
2019-06-15T06:04:21.172Z,11124.00
2019-06-15T06:05:21.267Z,11884.00
2019-06-15T06:06:21.262Z,11904.00
2019-06-15T06:07:21.306Z,11968.00
2019-06-15T06:08:21.353Z,11524.00
2019-06-15T06:09:21.399Z,11356.00
2019-06-15T06:10:21.468Z,11012.00
2019-06-15T06:11:21.507Z,10828.00
2019-06-15T06:12:21.540Z,11040.00
2019-06-15T06:13:21.592Z,10872.00
2019-06-15T06:14:21.634Z,10672.00
2019-06-15T06:15:21.678Z,10460.00
2019-06-15T06:16:21.736Z,10272.00
2019-06-15T06:17:21.770Z,10108.00
2019-06-15T06:18:21.817Z,9972.00
2019-06-15T06:19:21.862Z,9888.00
2019-06-15T06:20:21.908Z,9828.00
2019-06-15T06:21:21.956Z,9772.00
2019-06-15T06:22:22.027Z,9740.00
2019-06-15T06:23:22.129Z,9700.00
2019-06-15T06:24:22.103Z,9672.00
2019-06-15T06:25:22.154Z,9664.00
2019-06-15T06:26:22.249Z,9644.00
2019-06-15T06:27:35.897Z,9632.00
2019-06-15T06:28:22.287Z,9612.00
2019-06-15T06:29:22.327Z,9616.00
2019-06-15T06:30:22.375Z,9604.00
2019-06-15T06:31:22.431Z,9608.00
2019-06-15T06:32:22.471Z,9596.00
2019-06-15T06:33:22.516Z,9580.00
2019-06-15T06:34:22.562Z,9564.00
2019-06-15T06:35:22.607Z,9544.00
2019-06-15T06:36:22.666Z,9520.00
2019-06-15T06:37:22.702Z,9488.00
2019-06-15T06:38:22.764Z,9448.00
2019-06-15T06:39:22.793Z,9400.00
2019-06-15T06:40:22.850Z,9368.00
2019-06-15T06:41:22.887Z,9152.00
2019-06-15T06:42:22.984Z,9260.00
2019-06-15T06:43:22.982Z,9288.00
2019-06-15T06:44:23.030Z,9312.00
2019-06-15T06:45:23.075Z,9280.00
2019-06-15T06:46:23.121Z,9244.00
2019-06-15T06:47:23.182Z,9200.00
2019-06-15T06:48:23.213Z,9168.00
2019-06-15T06:49:23.262Z,9120.00
2019-06-15T06:50:23.306Z,9064.00
2019-06-15T06:51:23.356Z,9028.00
2019-06-15T06:52:23.403Z,8984.00
2019-06-15T06:53:23.449Z,8960.00
2019-06-15T06:54:23.500Z,8964.00
2019-06-15T06:55:23.540Z,8956.00
2019-06-15T06:56:23.632Z,8968.00
2019-06-15T06:57:23.634Z,8960.00
2019-06-15T06:58:23.684Z,8956.00
2019-06-15T06:59:23.751Z,8972.00
2019-06-15T07:00:23.780Z,8992.00
2019-06-15T07:01:23.823Z,9024.00
2019-06-15T07:02:23.874Z,9064.00
2019-06-15T07:03:23.920Z,9076.00
2019-06-15T07:04:23.967Z,9096.00
2019-06-15T07:05:24.010Z,9120.00
2019-06-15T07:06:24.084Z,9128.00
2019-06-15T07:07:24.105Z,9152.00
2019-06-15T07:08:24.153Z,9184.00
2019-06-15T07:09:24.198Z,9164.00
2019-06-15T07:10:24.246Z,9132.00
2019-06-15T07:11:24.301Z,9132.00
2019-06-15T07:12:24.344Z,9136.00
2019-06-15T07:13:24.386Z,9080.00
2019-06-15T07:14:24.436Z,9044.00
2019-06-15T07:15:24.486Z,9012.00
2019-06-15T07:16:24.545Z,9000.00
2019-06-15T07:17:24.577Z,8972.00
2019-06-15T07:18:24.626Z,8976.00
2019-06-15T07:19:24.669Z,8964.00
2019-06-15T07:20:24.728Z,8924.00
2019-06-15T07:21:24.762Z,8912.00
2019-06-15T07:22:24.818Z,8900.00
2019-06-15T07:23:24.872Z,8912.00
2019-06-15T07:24:24.921Z,8916.00
2019-06-15T07:25:24.955Z,8956.00
2019-06-15T07:26:24.999Z,8964.00
2019-06-15T07:27:25.060Z,8764.00
2019-06-15T07:28:25.103Z,9160.00
2019-06-15T07:29:25.141Z,9788.00
2019-06-15T07:30:25.201Z,9980.00
2019-06-15T07:31:25.233Z,9780.00
2019-06-15T07:32:25.296Z,9416.00
2019-06-15T07:33:25.328Z,9504.00
2019-06-15T07:34:25.375Z,9824.00
2019-06-15T07:35:25.444Z,10160.00
2019-06-15T07:36:25.474Z,10768.00
2019-06-15T07:37:25.536Z,11504.00
2019-06-15T07:38:25.569Z,12200.00
2019-06-15T07:39:25.612Z,12420.00
2019-06-15T07:40:25.661Z,12728.00
2019-06-15T07:41:25.705Z,12480.00
2019-06-15T07:42:25.754Z,12188.00
2019-06-15T07:43:25.803Z,11556.00
2019-06-15T07:44:25.851Z,11748.00
2019-06-15T07:45:25.894Z,12688.00
2019-06-15T07:46:25.941Z,12892.00
2019-06-15T07:47:26.048Z,12292.00
2019-06-15T07:48:26.039Z,11768.00
2019-06-15T07:49:26.085Z,10836.00
2019-06-15T07:50:26.139Z,9908.00
2019-06-15T07:51:26.181Z,8992.00
2019-06-15T07:52:26.228Z,8700.00
2019-06-15T07:53:26.279Z,9036.00
2019-06-15T07:54:26.322Z,9588.00
2019-06-15T07:55:26.377Z,9784.00
2019-06-15T07:56:26.419Z,9844.00
2019-06-15T07:57:26.465Z,9776.00
2019-06-15T07:58:26.519Z,9592.00
2019-06-15T07:59:26.601Z,9256.00
2019-06-15T08:00:26.637Z,8900.00
2019-06-15T08:01:26.664Z,8620.00
2019-06-15T08:02:26.720Z,8320.00
2019-06-15T08:03:26.753Z,8080.00
2019-06-15T08:04:26.798Z,7916.00
2019-06-15T08:05:26.846Z,7804.00
2019-06-15T08:06:26.897Z,7716.00
2019-06-15T08:07:26.947Z,7704.00
2019-06-15T08:08:26.994Z,7668.00
2019-06-15T08:09:27.039Z,7616.00
2019-06-15T08:10:27.084Z,7564.00
2019-06-15T08:11:27.174Z,7572.00
2019-06-15T08:12:27.180Z,7576.00
2019-06-15T08:13:27.235Z,7560.00
2019-06-15T08:14:27.282Z,7644.00
2019-06-15T08:15:27.430Z,7568.00
2019-06-15T08:16:27.380Z,7712.00
2019-06-15T08:17:27.427Z,7796.00
2019-06-15T08:18:27.474Z,7828.00
2019-06-15T08:19:27.513Z,7952.00
2019-06-15T08:20:27.559Z,7896.00
2019-06-15T08:21:27.605Z,7884.00
2019-06-15T08:22:27.674Z,7668.00
2019-06-15T08:23:27.700Z,7808.00
2019-06-15T08:24:27.789Z,7960.00
2019-06-15T08:25:27.795Z,7900.00
2019-06-15T08:26:27.842Z,8116.00
2019-06-15T08:27:27.890Z,8140.00
2019-06-15T08:28:39.955Z,8084.00
2019-06-15T08:29:27.983Z,7744.00
2019-06-15T08:30:28.045Z,7536.00
2019-06-15T08:31:28.080Z,7556.00
2019-06-15T08:32:28.135Z,7224.00
2019-06-15T08:33:28.181Z,7876.00
2019-06-15T08:34:28.319Z,8524.00
2019-06-15T08:35:28.270Z,8932.00
2019-06-15T08:36:28.316Z,9372.00
2019-06-15T08:37:28.373Z,9600.00
2019-06-15T08:38:28.412Z,9256.00
2019-06-15T08:39:28.460Z,9352.00
2019-06-15T08:40:28.520Z,9584.00
2019-06-15T08:41:28.555Z,9696.00
2019-06-15T08:42:28.602Z,9356.00
2019-06-15T08:43:28.650Z,9524.00
2019-06-15T08:44:28.722Z,9988.00
2019-06-15T08:45:28.749Z,10588.00
2019-06-15T08:46:28.800Z,10968.00
2019-06-15T08:47:28.916Z,10844.00
2019-06-15T08:48:28.891Z,10004.00
2019-06-15T08:49:28.937Z,8852.00
2019-06-15T08:50:28.983Z,8112.00
2019-06-15T08:51:29.043Z,7616.00
2019-06-15T08:52:29.081Z,7304.00
2019-06-15T08:53:29.132Z,7296.00
2019-06-15T08:54:29.176Z,7136.00
2019-06-15T08:55:29.227Z,7032.00
2019-06-15T08:56:29.280Z,6992.00
2019-06-15T08:57:29.317Z,6920.00
2019-06-15T08:58:29.370Z,7040.00
2019-06-15T08:59:29.413Z,6968.00
2019-06-15T09:00:29.463Z,7036.00
2019-06-15T09:01:29.517Z,7148.00
2019-06-15T09:02:29.557Z,7196.00
2019-06-15T09:03:29.610Z,6940.00
2019-06-15T09:04:29.661Z,7352.00
2019-06-15T09:05:29.706Z,7364.00
2019-06-15T09:06:29.764Z,7400.00
2019-06-15T09:07:29.797Z,7128.00
2019-06-15T09:08:29.842Z,7996.00
2019-06-15T09:09:29.906Z,8116.00
2019-06-15T09:10:29.944Z,8016.00
2019-06-15T09:11:30.145Z,7624.00
2019-06-15T09:12:30.039Z,7320.00
2019-06-15T09:13:30.081Z,7080.00
2019-06-15T09:14:30.138Z,7012.00
2019-06-15T09:15:30.178Z,7036.00
2019-06-15T09:16:30.227Z,6884.00
2019-06-15T09:17:30.273Z,6760.00
2019-06-15T09:18:30.322Z,6644.00
2019-06-15T09:19:30.381Z,6888.00
2019-06-15T09:20:30.419Z,7884.00
2019-06-15T09:21:30.460Z,7876.00
2019-06-15T09:22:30.509Z,7708.00
2019-06-15T09:23:30.557Z,7748.00
2019-06-15T09:24:30.604Z,7452.00
2019-06-15T09:25:30.650Z,7064.00
2019-06-15T09:26:30.699Z,6848.00
2019-06-15T09:27:30.750Z,6800.00
2019-06-15T09:28:30.795Z,6844.00
2019-06-15T09:29:30.850Z,6824.00
2019-06-15T09:30:30.896Z,6956.00
2019-06-15T09:31:30.941Z,7504.00
2019-06-15T09:32:30.990Z,8272.00
2019-06-15T09:33:31.034Z,9244.00
2019-06-15T09:34:31.107Z,9832.00
2019-06-15T09:35:31.130Z,10156.00
2019-06-15T09:36:31.178Z,11816.00
2019-06-15T09:37:31.225Z,13068.00
2019-06-15T09:38:31.270Z,14852.00
2019-06-15T09:39:31.359Z,13832.00
2019-06-15T09:40:31.374Z,13320.00
2019-06-15T09:41:31.418Z,12912.00
2019-06-15T09:42:31.611Z,12420.00
2019-06-15T09:43:31.515Z,13064.00
2019-06-15T09:44:31.561Z,11692.00
2019-06-15T09:45:33.027Z,9316.00
2019-06-15T09:46:31.655Z,7920.00
2019-06-15T09:47:31.705Z,7876.00
2019-06-15T09:48:31.751Z,7668.00
2019-06-15T09:49:31.804Z,8356.00
2019-06-15T09:50:31.855Z,10024.00
2019-06-15T09:51:31.907Z,11888.00
2019-06-15T09:52:31.960Z,14660.00
2019-06-15T09:53:32.042Z,15544.00
2019-06-15T09:54:32.052Z,15744.00
2019-06-15T09:55:32.110Z,16008.00
2019-06-15T09:56:32.140Z,18080.00
2019-06-15T09:57:32.184Z,17888.00
2019-06-15T09:58:32.235Z,18080.00
2019-06-15T09:59:32.278Z,17888.00
2019-06-15T10:00:32.329Z,17344.00
2019-06-15T10:01:32.374Z,15568.00
2019-06-15T10:02:32.475Z,14092.00
2019-06-15T10:03:32.473Z,14780.00
2019-06-15T10:04:32.518Z,15760.00
2019-06-15T10:05:32.566Z,17216.00
2019-06-15T10:06:32.639Z,18016.00
2019-06-15T10:07:32.664Z,16960.00
2019-06-15T10:08:32.713Z,15376.00
2019-06-15T10:09:32.760Z,13860.00
2019-06-15T10:10:32.813Z,12108.00
2019-06-15T10:11:32.871Z,10264.00
2019-06-15T10:12:32.907Z,9028.00
2019-06-15T10:13:32.959Z,8524.00
2019-06-15T10:14:33.002Z,8596.00
2019-06-15T10:15:33.051Z,9184.00
2019-06-15T10:16:33.114Z,9576.00
2019-06-15T10:17:33.151Z,9428.00
2019-06-15T10:18:33.213Z,10368.00
2019-06-15T10:19:33.250Z,12104.00
2019-06-15T10:20:33.339Z,12628.00
2019-06-15T10:21:33.345Z,11488.00
2019-06-15T10:22:33.396Z,10620.00
2019-06-15T10:23:33.441Z,9988.00
2019-06-15T10:24:33.488Z,9976.00
2019-06-15T10:25:33.536Z,9988.00
2019-06-15T10:26:33.584Z,10408.00
2019-06-15T10:27:33.642Z,12008.00
2019-06-15T10:28:33.697Z,13456.00
2019-06-15T10:29:41.984Z,14056.00
2019-06-15T10:30:33.779Z,12920.00
2019-06-15T10:31:33.825Z,12188.00
2019-06-15T10:32:33.878Z,12436.00
2019-06-15T10:33:33.946Z,12288.00
2019-06-15T10:34:33.982Z,11328.00
2019-06-15T10:35:34.022Z,10940.00
2019-06-15T10:36:34.079Z,10820.00
2019-06-15T10:37:34.123Z,10596.00
2019-06-15T10:38:34.173Z,10148.00
2019-06-15T10:39:34.214Z,9520.00
2019-06-15T10:40:34.263Z,8544.00
2019-06-15T10:41:34.312Z,7860.00
2019-06-15T10:42:34.362Z,7524.00
2019-06-15T10:43:34.408Z,7328.00
2019-06-15T10:44:34.458Z,8292.00
2019-06-15T10:45:34.512Z,8476.00
2019-06-15T10:46:34.560Z,8036.00
2019-06-15T10:47:34.608Z,7812.00
2019-06-15T10:48:34.690Z,6696.00
2019-06-15T10:49:34.702Z,6208.00
2019-06-15T10:50:35.009Z,5824.00
2019-06-15T10:51:34.818Z,5692.00
2019-06-15T10:52:34.848Z,6148.00
2019-06-15T10:53:34.891Z,7308.00
2019-06-15T10:54:34.944Z,6360.00
2019-06-15T10:55:34.987Z,5744.00
2019-06-15T10:56:35.044Z,6360.00
2019-06-15T10:57:35.091Z,6652.00
2019-06-15T10:58:35.131Z,7944.00
2019-06-15T10:59:35.188Z,9032.00
2019-06-15T11:00:35.226Z,10496.00
2019-06-15T11:01:35.289Z,12120.00
2019-06-15T11:02:35.328Z,13704.00
2019-06-15T11:03:35.372Z,13980.00
2019-06-15T11:04:35.427Z,13912.00
2019-06-15T11:05:35.469Z,13400.00
2019-06-15T11:06:35.533Z,14224.00
2019-06-15T11:07:35.578Z,16108.00
2019-06-15T11:08:35.623Z,18176.00
2019-06-15T11:09:35.671Z,20096.00
2019-06-15T11:10:35.709Z,18816.00
2019-06-15T11:11:35.754Z,15456.00
2019-06-15T11:12:45.743Z,13160.00
2019-06-15T11:13:35.852Z,11872.00
2019-06-15T11:14:35.905Z,11040.00
2019-06-15T11:15:35.951Z,10296.00
2019-06-15T11:16:36.009Z,9588.00
2019-06-15T11:17:36.050Z,12080.00
2019-06-15T11:18:36.097Z,14716.00
2019-06-15T11:19:36.145Z,17824.00
2019-06-15T11:20:36.193Z,18240.00
2019-06-15T11:21:36.240Z,14740.00
2019-06-15T11:22:36.290Z,11808.00
2019-06-15T11:23:36.343Z,10792.00
2019-06-15T11:24:36.393Z,11060.00
2019-06-15T11:25:36.434Z,12624.00
2019-06-15T11:26:36.500Z,14720.00
2019-06-15T11:27:36.533Z,16320.00
2019-06-15T11:28:36.591Z,17792.00
2019-06-15T11:29:36.629Z,18048.00
2019-06-15T11:30:36.739Z,19040.00
2019-06-15T11:31:36.730Z,19136.00
2019-06-15T11:32:36.778Z,18688.00
2019-06-15T11:33:36.829Z,17728.00
2019-06-15T11:34:36.876Z,18304.00
2019-06-15T11:35:36.926Z,18944.00
2019-06-15T11:36:36.985Z,18112.00
2019-06-15T11:37:37.023Z,16384.00
2019-06-15T11:38:37.070Z,15236.00
2019-06-15T11:39:37.119Z,13640.00
2019-06-15T11:40:37.168Z,12488.00
2019-06-15T11:41:37.220Z,12800.00
2019-06-15T11:42:37.266Z,14052.00
2019-06-15T11:43:37.334Z,16544.00
2019-06-15T11:44:37.387Z,19808.00
2019-06-15T11:45:37.426Z,19904.00
2019-06-15T11:46:37.463Z,19648.00
2019-06-15T11:47:37.513Z,19872.00
2019-06-15T11:48:37.562Z,20608.00
2019-06-15T11:49:37.609Z,19616.00
2019-06-15T11:50:37.666Z,18336.00
2019-06-15T11:51:37.709Z,15992.00
2019-06-15T11:52:37.774Z,13972.00
2019-06-15T11:53:37.811Z,13220.00
2019-06-15T11:54:37.863Z,13364.00
2019-06-15T11:55:39.793Z,13404.00
2019-06-15T11:56:37.972Z,11640.00
2019-06-15T11:57:38.005Z,10380.00
2019-06-15T11:58:38.054Z,8960.00
2019-06-15T11:59:38.103Z,8020.00
2019-06-15T12:00:38.163Z,7736.00
2019-06-15T12:01:38.207Z,7620.00
2019-06-15T12:02:38.252Z,7756.00
2019-06-15T12:03:38.303Z,7660.00
2019-06-15T12:04:38.351Z,7552.00
2019-06-15T12:05:38.404Z,7312.00
2019-06-15T12:06:38.451Z,7352.00
2019-06-15T12:07:38.498Z,7960.00
2019-06-15T12:08:38.546Z,8484.00
2019-06-15T12:09:38.600Z,8560.00
2019-06-15T12:10:38.646Z,9268.00
2019-06-15T12:11:38.717Z,9740.00
2019-06-15T12:12:38.742Z,9976.00
2019-06-15T12:13:38.802Z,10412.00
2019-06-15T12:14:38.845Z,9968.00
2019-06-15T12:15:38.892Z,9772.00
2019-06-15T12:16:38.947Z,10768.00